sensor_id;sensor_type;location;lat;lon;timestamp;P1;durP1;ratioP1;P2;durP2;ratioP2
5977;SDS011;3015;51.390;12.256;2022-11-15T00:01:24;18.77;;;14.97;;
5977;SDS011;3015;51.390;12.256;2022-11-15T00:03:50;16.17;;;14.30;;
5977;SDS011;3015;51.390;12.256;2022-11-15T00:06:16;18.85;;;14.13;;
5977;SDS011;3015;51.390;12.256;2022-11-15T00:08:42;21.87;;;16.17;;
5977;SDS011;3015;51.390;12.256;2022-11-15T00:11:09;17.70;;;14.63;;
5977;SDS011;3015;51.390;12.256;2022-11-15T00:13:36;15.52;;;13.40;;
5977;SDS011;3015;51.390;12.256;2022-11-15T00:16:02;18.27;;;13.73;;
5977;SDS011;3015;51.390;12.256;2022-11-15T00:18:28;16.93;;;14.57;;
5977;SDS011;3015;51.390;12.256;2022-11-15T00:20:54;19.30;;;15.45;;
5977;SDS011;3015;51.390;12.256;2022-11-15T00:23:20;19.02;;;15.98;;
5977;SDS011;3015;51.390;12.256;2022-11-15T00:25:46;18.67;;;14.93;;
5977;SDS011;3015;51.390;12.256;2022-11-15T00:28:11;19.57;;;14.63;;
5977;SDS011;3015;51.390;12.256;2022-11-15T00:30:37;18.07;;;13.70;;
5977;SDS011;3015;51.390;12.256;2022-11-15T00:33:03;23.27;;;14.60;;
5977;SDS011;3015;51.390;12.256;2022-11-15T00:35:33;20.20;;;15.65;;
5977;SDS011;3015;51.390;12.256;2022-11-15T00:38:00;21.00;;;15.68;;
5977;SDS011;3015;51.390;12.256;2022-11-15T00:40:26;20.80;;;16.33;;
5977;SDS011;3015;51.390;12.256;2022-11-15T00:42:52;19.13;;;15.17;;
5977;SDS011;3015;51.390;12.256;2022-11-15T00:45:17;20.97;;;14.40;;
5977;SDS011;3015;51.390;12.256;2022-11-15T00:47:46;19.03;;;14.20;;
5977;SDS011;3015;51.390;12.256;2022-11-15T00:50:12;19.80;;;14.65;;
5977;SDS011;3015;51.390;12.256;2022-11-15T00:52:38;17.52;;;15.13;;
5977;SDS011;3015;51.390;12.256;2022-11-15T00:55:04;19.70;;;15.10;;
5977;SDS011;3015;51.390;12.256;2022-11-15T00:57:30;25.33;;;18.23;;
5977;SDS011;3015;51.390;12.256;2022-11-15T00:59:55;26.50;;;18.17;;
5977;SDS011;3015;51.390;12.256;2022-11-15T01:02:21;16.63;;;14.30;;
5977;SDS011;3015;51.390;12.256;2022-11-15T01:04:46;20.50;;;15.73;;
5977;SDS011;3015;51.390;12.256;2022-11-15T01:07:12;20.70;;;15.10;;
5977;SDS011;3015;51.390;12.256;2022-11-15T01:09:38;23.63;;;15.60;;
5977;SDS011;3015;51.390;12.256;2022-11-15T01:12:03;21.83;;;15.03;;
5977;SDS011;3015;51.390;12.256;2022-11-15T01:14:29;19.77;;;14.23;;
5977;SDS011;3015;51.390;12.256;2022-11-15T01:16:55;18.60;;;15.00;;
5977;SDS011;3015;51.390;12.256;2022-11-15T01:19:20;19.27;;;15.23;;
5977;SDS011;3015;51.390;12.256;2022-11-15T01:21:48;20.47;;;14.80;;
5977;SDS011;3015;51.390;12.256;2022-11-15T01:24:15;18.70;;;14.48;;
5977;SDS011;3015;51.390;12.256;2022-11-15T01:26:41;19.70;;;14.27;;
5977;SDS011;3015;51.390;12.256;2022-11-15T01:29:06;21.47;;;16.13;;
5977;SDS011;3015;51.390;12.256;2022-11-15T01:31:32;17.10;;;13.47;;
5977;SDS011;3015;51.390;12.256;2022-11-15T01:33:58;18.47;;;13.43;;
5977;SDS011;3015;51.390;12.256;2022-11-15T01:36:23;17.07;;;13.93;;
5977;SDS011;3015;51.390;12.256;2022-11-15T01:39:07;19.70;;;12.63;;
5977;SDS011;3015;51.390;12.256;2022-11-15T01:41:33;17.48;;;12.45;;
5977;SDS011;3015;51.390;12.256;2022-11-15T01:46:58;17.35;;;12.98;;
5977;SDS011;3015;51.390;12.256;2022-11-15T01:49:26;15.05;;;12.50;;
5977;SDS011;3015;51.390;12.256;2022-11-15T01:51:55;16.17;;;14.43;;
5977;SDS011;3015;51.390;12.256;2022-11-15T01:54:21;15.60;;;13.13;;
5977;SDS011;3015;51.390;12.256;2022-11-15T01:56:50;20.77;;;14.75;;
5977;SDS011;3015;51.390;12.256;2022-11-15T01:59:22;16.98;;;14.25;;
5977;SDS011;3015;51.390;12.256;2022-11-15T02:01:48;23.60;;;16.30;;
5977;SDS011;3015;51.390;12.256;2022-11-15T02:04:30;17.73;;;14.43;;
5977;SDS011;3015;51.390;12.256;2022-11-15T02:06:58;15.90;;;13.40;;
5977;SDS011;3015;51.390;12.256;2022-11-15T02:09:26;18.23;;;13.80;;
5977;SDS011;3015;51.390;12.256;2022-11-15T02:11:52;18.53;;;14.13;;
5977;SDS011;3015;51.390;12.256;2022-11-15T02:14:19;16.27;;;13.07;;
5977;SDS011;3015;51.390;12.256;2022-11-15T02:25:08;15.50;;;12.02;;
5977;SDS011;3015;51.390;12.256;2022-11-15T02:30:19;19.77;;;13.35;;
5977;SDS011;3015;51.390;12.256;2022-11-15T02:33:00;16.25;;;12.52;;
5977;SDS011;3015;51.390;12.256;2022-11-15T02:35:41;19.63;;;13.48;;
5977;SDS011;3015;51.390;12.256;2022-11-15T02:41:01;15.02;;;13.30;;
5977;SDS011;3015;51.390;12.256;2022-11-15T02:43:43;16.80;;;13.52;;
5977;SDS011;3015;51.390;12.256;2022-11-15T02:49:22;13.90;;;12.50;;
5977;SDS011;3015;51.390;12.256;2022-11-15T02:51:51;15.68;;;12.55;;
5977;SDS011;3015;51.390;12.256;2022-11-15T02:54:21;15.05;;;13.23;;
5977;SDS011;3015;51.390;12.256;2022-11-15T02:56:49;16.30;;;12.68;;
5977;SDS011;3015;51.390;12.256;2022-11-15T03:08:08;14.40;;;12.75;;
5977;SDS011;3015;51.390;12.256;2022-11-15T03:16:14;17.20;;;12.20;;
5977;SDS011;3015;51.390;12.256;2022-11-15T03:18:47;16.83;;;12.02;;
5977;SDS011;3015;51.390;12.256;2022-11-15T03:21:18;15.30;;;12.30;;
5977;SDS011;3015;51.390;12.256;2022-11-15T03:23:46;19.27;;;13.15;;
5977;SDS011;3015;51.390;12.256;2022-11-15T03:26:14;14.93;;;12.60;;
5977;SDS011;3015;51.390;12.256;2022-11-15T03:28:52;18.25;;;14.18;;
5977;SDS011;3015;51.390;12.256;2022-11-15T03:31:22;15.88;;;12.48;;
5977;SDS011;3015;51.390;12.256;2022-11-15T03:34:10;14.68;;;12.13;;
5977;SDS011;3015;51.390;12.256;2022-11-15T03:36:54;17.52;;;13.15;;
5977;SDS011;3015;51.390;12.256;2022-11-15T03:39:20;15.85;;;12.85;;
5977;SDS011;3015;51.390;12.256;2022-11-15T03:47:27;17.33;;;13.43;;
5977;SDS011;3015;51.390;12.256;2022-11-15T03:49:59;17.83;;;12.70;;
5977;SDS011;3015;51.390;12.256;2022-11-15T03:52:33;19.77;;;14.40;;
5977;SDS011;3015;51.390;12.256;2022-11-15T03:55:00;15.57;;;12.75;;
5977;SDS011;3015;51.390;12.256;2022-11-15T03:57:27;16.25;;;13.73;;
5977;SDS011;3015;51.390;12.256;2022-11-15T03:59:53;17.23;;;14.33;;
5977;SDS011;3015;51.390;12.256;2022-11-15T04:02:19;16.17;;;12.90;;
5977;SDS011;3015;51.390;12.256;2022-11-15T04:04:44;14.23;;;12.73;;
5977;SDS011;3015;51.390;12.256;2022-11-15T04:07:10;16.40;;;12.73;;
5977;SDS011;3015;51.390;12.256;2022-11-15T04:09:36;19.50;;;14.17;;
5977;SDS011;3015;51.390;12.256;2022-11-15T04:12:24;13.15;;;11.75;;
5977;SDS011;3015;51.390;12.256;2022-11-15T04:15:03;13.45;;;11.45;;
5977;SDS011;3015;51.390;12.256;2022-11-15T04:17:46;15.45;;;12.18;;
5977;SDS011;3015;51.390;12.256;2022-11-15T04:20:13;18.90;;;11.80;;
5977;SDS011;3015;51.390;12.256;2022-11-15T04:23:12;16.65;;;11.88;;
5977;SDS011;3015;51.390;12.256;2022-11-15T04:26:10;15.30;;;13.00;;
5977;SDS011;3015;51.390;12.256;2022-11-15T04:28:39;18.60;;;12.15;;
5977;SDS011;3015;51.390;12.256;2022-11-15T04:31:25;14.93;;;12.40;;
5977;SDS011;3015;51.390;12.256;2022-11-15T04:33:51;15.75;;;12.05;;
5977;SDS011;3015;51.390;12.256;2022-11-15T04:36:17;12.23;;;10.83;;
5977;SDS011;3015;51.390;12.256;2022-11-15T04:39:02;11.90;;;10.70;;
5977;SDS011;3015;51.390;12.256;2022-11-15T04:41:28;13.75;;;11.25;;
5977;SDS011;3015;51.390;12.256;2022-11-15T04:43:56;11.75;;;10.13;;
5977;SDS011;3015;51.390;12.256;2022-11-15T04:46:22;12.93;;;11.00;;
5977;SDS011;3015;51.390;12.256;2022-11-15T04:48:49;16.25;;;12.38;;
5977;SDS011;3015;51.390;12.256;2022-11-15T04:51:15;14.38;;;11.57;;
5977;SDS011;3015;51.390;12.256;2022-11-15T04:53:41;13.57;;;11.75;;
5977;SDS011;3015;51.390;12.256;2022-11-15T04:56:06;13.37;;;12.00;;
5977;SDS011;3015;51.390;12.256;2022-11-15T04:58:32;12.27;;;10.40;;
5977;SDS011;3015;51.390;12.256;2022-11-15T05:01:05;15.82;;;12.05;;
5977;SDS011;3015;51.390;12.256;2022-11-15T05:03:32;15.57;;;11.93;;
5977;SDS011;3015;51.390;12.256;2022-11-15T05:06:16;14.60;;;11.30;;
5977;SDS011;3015;51.390;12.256;2022-11-15T05:08:42;14.53;;;12.03;;
5977;SDS011;3015;51.390;12.256;2022-11-15T05:11:07;13.57;;;11.73;;
5977;SDS011;3015;51.390;12.256;2022-11-15T05:13:33;12.70;;;10.50;;
5977;SDS011;3015;51.390;12.256;2022-11-15T05:15:58;14.87;;;10.40;;
5977;SDS011;3015;51.390;12.256;2022-11-15T05:18:24;13.60;;;12.10;;
5977;SDS011;3015;51.390;12.256;2022-11-15T05:20:49;14.07;;;11.33;;
5977;SDS011;3015;51.390;12.256;2022-11-15T05:23:15;15.70;;;11.17;;
5977;SDS011;3015;51.390;12.256;2022-11-15T05:25:41;14.50;;;12.50;;
5977;SDS011;3015;51.390;12.256;2022-11-15T05:28:06;14.10;;;12.17;;
5977;SDS011;3015;51.390;12.256;2022-11-15T05:30:32;15.30;;;11.30;;
5977;SDS011;3015;51.390;12.256;2022-11-15T05:32:57;16.20;;;12.10;;
5977;SDS011;3015;51.390;12.256;2022-11-15T05:35:45;13.47;;;11.73;;
5977;SDS011;3015;51.390;12.256;2022-11-15T05:38:11;14.15;;;12.00;;
5977;SDS011;3015;51.390;12.256;2022-11-15T05:40:37;13.63;;;11.10;;
5977;SDS011;3015;51.390;12.256;2022-11-15T05:43:03;15.50;;;12.23;;
5977;SDS011;3015;51.390;12.256;2022-11-15T05:45:29;11.23;;;9.55;;
5977;SDS011;3015;51.390;12.256;2022-11-15T05:47:58;16.77;;;11.80;;
5977;SDS011;3015;51.390;12.256;2022-11-15T05:50:26;13.35;;;11.60;;
5977;SDS011;3015;51.390;12.256;2022-11-15T05:52:52;13.73;;;11.90;;
5977;SDS011;3015;51.390;12.256;2022-11-15T05:55:20;15.52;;;13.38;;
5977;SDS011;3015;51.390;12.256;2022-11-15T05:57:45;15.97;;;12.37;;
5977;SDS011;3015;51.390;12.256;2022-11-15T06:00:11;11.70;;;10.50;;
5977;SDS011;3015;51.390;12.256;2022-11-15T06:02:37;14.43;;;11.00;;
5977;SDS011;3015;51.390;12.256;2022-11-15T06:05:03;18.77;;;12.57;;
5977;SDS011;3015;51.390;12.256;2022-11-15T06:07:29;15.93;;;12.00;;
5977;SDS011;3015;51.390;12.256;2022-11-15T06:09:55;15.20;;;10.93;;
5977;SDS011;3015;51.390;12.256;2022-11-15T06:12:20;14.63;;;11.77;;
5977;SDS011;3015;51.390;12.256;2022-11-15T06:14:46;16.77;;;12.00;;
5977;SDS011;3015;51.390;12.256;2022-11-15T06:17:11;14.10;;;11.20;;
5977;SDS011;3015;51.390;12.256;2022-11-15T06:19:37;12.70;;;10.30;;
5977;SDS011;3015;51.390;12.256;2022-11-15T06:22:03;15.20;;;11.67;;
5977;SDS011;3015;51.390;12.256;2022-11-15T06:24:28;12.70;;;11.37;;
5977;SDS011;3015;51.390;12.256;2022-11-15T06:26:54;13.30;;;10.60;;
5977;SDS011;3015;51.390;12.256;2022-11-15T06:29:19;14.07;;;11.70;;
5977;SDS011;3015;51.390;12.256;2022-11-15T06:31:45;17.67;;;12.97;;
5977;SDS011;3015;51.390;12.256;2022-11-15T06:34:10;18.90;;;13.50;;
5977;SDS011;3015;51.390;12.256;2022-11-15T06:36:36;14.90;;;12.80;;
5977;SDS011;3015;51.390;12.256;2022-11-15T06:39:03;15.07;;;12.40;;
5977;SDS011;3015;51.390;12.256;2022-11-15T06:41:29;16.60;;;13.15;;
5977;SDS011;3015;51.390;12.256;2022-11-15T06:43:55;19.27;;;13.27;;
5977;SDS011;3015;51.390;12.256;2022-11-15T06:46:21;15.00;;;12.10;;
5977;SDS011;3015;51.390;12.256;2022-11-15T06:48:47;19.83;;;14.83;;
5977;SDS011;3015;51.390;12.256;2022-11-15T06:51:15;17.52;;;13.85;;
5977;SDS011;3015;51.390;12.256;2022-11-15T06:53:40;13.80;;;12.40;;
5977;SDS011;3015;51.390;12.256;2022-11-15T06:56:06;16.03;;;12.77;;
5977;SDS011;3015;51.390;12.256;2022-11-15T06:58:32;16.23;;;12.60;;
5977;SDS011;3015;51.390;12.256;2022-11-15T07:01:00;14.27;;;12.35;;
5977;SDS011;3015;51.390;12.256;2022-11-15T07:03:27;17.33;;;11.93;;
5977;SDS011;3015;51.390;12.256;2022-11-15T07:05:53;16.63;;;13.20;;
5977;SDS011;3015;51.390;12.256;2022-11-15T07:08:20;15.00;;;12.05;;
5977;SDS011;3015;51.390;12.256;2022-11-15T07:10:47;13.18;;;11.65;;
5977;SDS011;3015;51.390;12.256;2022-11-15T07:13:12;13.27;;;11.83;;
5977;SDS011;3015;51.390;12.256;2022-11-15T07:15:38;16.70;;;11.80;;
5977;SDS011;3015;51.390;12.256;2022-11-15T07:18:04;15.23;;;10.80;;
5977;SDS011;3015;51.390;12.256;2022-11-15T07:20:29;18.50;;;12.67;;
5977;SDS011;3015;51.390;12.256;2022-11-15T07:23:04;14.00;;;11.60;;
5977;SDS011;3015;51.390;12.256;2022-11-15T07:25:30;12.35;;;11.05;;
5977;SDS011;3015;51.390;12.256;2022-11-15T07:27:57;17.80;;;12.88;;
5977;SDS011;3015;51.390;12.256;2022-11-15T07:30:24;15.77;;;12.05;;
5977;SDS011;3015;51.390;12.256;2022-11-15T07:32:55;14.30;;;12.80;;
5977;SDS011;3015;51.390;12.256;2022-11-15T07:35:24;13.35;;;10.65;;
5977;SDS011;3015;51.390;12.256;2022-11-15T07:37:58;13.25;;;11.88;;
5977;SDS011;3015;51.390;12.256;2022-11-15T07:40:26;13.80;;;11.07;;
5977;SDS011;3015;51.390;12.256;2022-11-15T07:42:58;12.25;;;10.43;;
5977;SDS011;3015;51.390;12.256;2022-11-15T07:45:27;15.13;;;11.10;;
5977;SDS011;3015;51.390;12.256;2022-11-15T07:47:54;17.70;;;11.98;;
5977;SDS011;3015;51.390;12.256;2022-11-15T07:50:21;15.52;;;11.18;;
5977;SDS011;3015;51.390;12.256;2022-11-15T07:52:55;13.57;;;11.82;;
5977;SDS011;3015;51.390;12.256;2022-11-15T07:55:23;13.65;;;10.98;;
5977;SDS011;3015;51.390;12.256;2022-11-15T07:57:49;13.15;;;10.57;;
5977;SDS011;3015;51.390;12.256;2022-11-15T08:00:15;15.03;;;11.50;;
5977;SDS011;3015;51.390;12.256;2022-11-15T08:02:41;12.45;;;11.07;;
5977;SDS011;3015;51.390;12.256;2022-11-15T08:05:07;11.32;;;10.00;;
5977;SDS011;3015;51.390;12.256;2022-11-15T08:07:33;9.93;;;8.35;;
5977;SDS011;3015;51.390;12.256;2022-11-15T08:09:59;10.10;;;8.23;;
5977;SDS011;3015;51.390;12.256;2022-11-15T08:12:26;9.30;;;8.50;;
5977;SDS011;3015;51.390;12.256;2022-11-15T08:14:54;9.60;;;8.70;;
5977;SDS011;3015;51.390;12.256;2022-11-15T08:17:20;9.40;;;8.47;;
5977;SDS011;3015;51.390;12.256;2022-11-15T08:19:46;9.10;;;8.30;;
5977;SDS011;3015;51.390;12.256;2022-11-15T08:22:13;9.63;;;8.60;;
5977;SDS011;3015;51.390;12.256;2022-11-15T08:24:39;9.13;;;8.23;;
5977;SDS011;3015;51.390;12.256;2022-11-15T08:27:05;9.70;;;8.70;;
5977;SDS011;3015;51.390;12.256;2022-11-15T08:29:43;8.67;;;7.87;;
5977;SDS011;3015;51.390;12.256;2022-11-15T08:32:10;9.67;;;8.17;;
5977;SDS011;3015;51.390;12.256;2022-11-15T08:34:36;7.97;;;7.33;;
5977;SDS011;3015;51.390;12.256;2022-11-15T08:37:02;8.60;;;7.83;;
5977;SDS011;3015;51.390;12.256;2022-11-15T08:39:28;9.20;;;7.93;;
5977;SDS011;3015;51.390;12.256;2022-11-15T08:41:53;9.87;;;8.20;;
5977;SDS011;3015;51.390;12.256;2022-11-15T08:44:19;8.60;;;7.43;;
5977;SDS011;3015;51.390;12.256;2022-11-15T08:46:45;8.20;;;7.50;;
5977;SDS011;3015;51.390;12.256;2022-11-15T08:49:11;8.93;;;8.03;;
5977;SDS011;3015;51.390;12.256;2022-11-15T08:51:37;10.63;;;8.00;;
5977;SDS011;3015;51.390;12.256;2022-11-15T08:54:02;10.07;;;7.63;;
5977;SDS011;3015;51.390;12.256;2022-11-15T08:56:28;7.43;;;6.80;;
5977;SDS011;3015;51.390;12.256;2022-11-15T08:58:54;8.13;;;7.33;;
5977;SDS011;3015;51.390;12.256;2022-11-15T09:01:19;8.90;;;7.93;;
5977;SDS011;3015;51.390;12.256;2022-11-15T09:03:45;6.87;;;6.37;;
5977;SDS011;3015;51.390;12.256;2022-11-15T09:06:11;7.90;;;7.20;;
5977;SDS011;3015;51.390;12.256;2022-11-15T09:08:37;7.57;;;6.97;;
5977;SDS011;3015;51.390;12.256;2022-11-15T09:11:04;8.07;;;7.27;;
5977;SDS011;3015;51.390;12.256;2022-11-15T09:13:33;8.00;;;7.30;;
5977;SDS011;3015;51.390;12.256;2022-11-15T09:16:00;7.93;;;7.23;;
5977;SDS011;3015;51.390;12.256;2022-11-15T09:18:26;7.60;;;6.80;;
5977;SDS011;3015;51.390;12.256;2022-11-15T09:20:54;7.53;;;6.90;;
5977;SDS011;3015;51.390;12.256;2022-11-15T09:23:21;8.47;;;7.33;;
5977;SDS011;3015;51.390;12.256;2022-11-15T09:25:47;7.37;;;6.53;;
5977;SDS011;3015;51.390;12.256;2022-11-15T09:28:13;7.00;;;6.40;;
5977;SDS011;3015;51.390;12.256;2022-11-15T09:30:39;6.57;;;6.03;;
5977;SDS011;3015;51.390;12.256;2022-11-15T09:33:08;6.97;;;6.37;;
5977;SDS011;3015;51.390;12.256;2022-11-15T09:35:34;7.63;;;6.97;;
5977;SDS011;3015;51.390;12.256;2022-11-15T09:38:00;7.63;;;6.93;;
5977;SDS011;3015;51.390;12.256;2022-11-15T09:40:26;6.80;;;6.20;;
5977;SDS011;3015;51.390;12.256;2022-11-15T09:48:25;6.70;;;6.17;;
5977;SDS011;3015;51.390;12.256;2022-11-15T09:51:27;6.80;;;6.20;;
5977;SDS011;3015;51.390;12.256;2022-11-15T09:56:37;7.33;;;6.73;;
5977;SDS011;3015;51.390;12.256;2022-11-15T10:04:32;6.60;;;6.10;;
5977;SDS011;3015;51.390;12.256;2022-11-15T10:07:02;6.83;;;6.33;;
5977;SDS011;3015;51.390;12.256;2022-11-15T10:12:22;7.60;;;7.10;;
5977;SDS011;3015;51.390;12.256;2022-11-15T10:14:49;6.10;;;5.70;;
5977;SDS011;3015;51.390;12.256;2022-11-15T10:22:39;7.13;;;6.43;;
5977;SDS011;3015;51.390;12.256;2022-11-15T10:27:33;5.50;;;5.10;;
5977;SDS011;3015;51.390;12.256;2022-11-15T10:29:59;5.70;;;5.23;;
5977;SDS011;3015;51.390;12.256;2022-11-15T10:32:25;5.40;;;5.00;;
5977;SDS011;3015;51.390;12.256;2022-11-15T10:34:50;6.27;;;5.87;;
5977;SDS011;3015;51.390;12.256;2022-11-15T10:37:37;6.20;;;5.70;;
5977;SDS011;3015;51.390;12.256;2022-11-15T10:40:06;5.90;;;5.50;;
5977;SDS011;3015;51.390;12.256;2022-11-15T10:43:25;5.17;;;4.87;;
5977;SDS011;3015;51.390;12.256;2022-11-15T10:45:44;6.20;;;5.60;;
5977;SDS011;3015;51.390;12.256;2022-11-15T10:50:36;6.13;;;5.67;;
5977;SDS011;3015;51.390;12.256;2022-11-15T10:53:03;5.77;;;5.30;;
5977;SDS011;3015;51.390;12.256;2022-11-15T10:55:37;5.83;;;5.43;;
5977;SDS011;3015;51.390;12.256;2022-11-15T10:58:06;6.17;;;5.67;;
5977;SDS011;3015;51.390;12.256;2022-11-15T11:00:47;6.27;;;5.77;;
5977;SDS011;3015;51.390;12.256;2022-11-15T11:03:29;7.10;;;5.20;;
5977;SDS011;3015;51.390;12.256;2022-11-15T11:08:33;6.20;;;5.43;;
5977;SDS011;3015;51.390;12.256;2022-11-15T11:11:00;6.00;;;5.60;;
5977;SDS011;3015;51.390;12.256;2022-11-15T11:13:27;5.13;;;4.80;;
5977;SDS011;3015;51.390;12.256;2022-11-15T11:18:43;6.93;;;6.17;;
5977;SDS011;3015;51.390;12.256;2022-11-15T11:21:46;5.97;;;5.47;;
5977;SDS011;3015;51.390;12.256;2022-11-15T11:24:24;5.37;;;4.97;;
5977;SDS011;3015;51.390;12.256;2022-11-15T11:27:31;5.27;;;4.80;;
5977;SDS011;3015;51.390;12.256;2022-11-15T11:30:29;5.73;;;5.33;;
5977;SDS011;3015;51.390;12.256;2022-11-15T11:33:09;5.93;;;5.53;;
5977;SDS011;3015;51.390;12.256;2022-11-15T11:40:44;5.57;;;5.07;;
5977;SDS011;3015;51.390;12.256;2022-11-15T11:46:41;5.60;;;5.13;;
5977;SDS011;3015;51.390;12.256;2022-11-15T11:52:04;4.97;;;4.57;;
5977;SDS011;3015;51.390;12.256;2022-11-15T11:57:31;5.20;;;4.80;;
5977;SDS011;3015;51.390;12.256;2022-11-15T12:02:52;5.17;;;4.13;;
5977;SDS011;3015;51.390;12.256;2022-11-15T12:05:40;4.60;;;4.30;;
5977;SDS011;3015;51.390;12.256;2022-11-15T12:08:18;5.20;;;4.60;;
5977;SDS011;3015;51.390;12.256;2022-11-15T12:13:53;4.63;;;4.33;;
5977;SDS011;3015;51.390;12.256;2022-11-15T12:16:26;4.43;;;4.03;;
5977;SDS011;3015;51.390;12.256;2022-11-15T12:18:54;5.07;;;4.67;;
5977;SDS011;3015;51.390;12.256;2022-11-15T12:24:20;4.90;;;4.50;;
5977;SDS011;3015;51.390;12.256;2022-11-15T12:27:07;3.87;;;3.53;;
5977;SDS011;3015;51.390;12.256;2022-11-15T12:29:40;4.20;;;3.90;;
5977;SDS011;3015;51.390;12.256;2022-11-15T12:32:35;3.83;;;3.53;;
5977;SDS011;3015;51.390;12.256;2022-11-15T12:35:01;4.00;;;3.70;;
5977;SDS011;3015;51.390;12.256;2022-11-15T12:37:33;4.20;;;3.90;;
5977;SDS011;3015;51.390;12.256;2022-11-15T12:42:57;3.60;;;3.30;;
5977;SDS011;3015;51.390;12.256;2022-11-15T12:47:53;4.37;;;4.07;;
5977;SDS011;3015;51.390;12.256;2022-11-15T12:51:06;3.67;;;3.43;;
5977;SDS011;3015;51.390;12.256;2022-11-15T13:06:47;3.30;;;3.10;;
5977;SDS011;3015;51.390;12.256;2022-11-15T13:11:59;3.20;;;3.00;;
5977;SDS011;3015;51.390;12.256;2022-11-15T13:19:43;3.33;;;3.03;;
5977;SDS011;3015;51.390;12.256;2022-11-15T13:22:12;3.87;;;3.57;;
5977;SDS011;3015;51.390;12.256;2022-11-15T13:24:56;4.87;;;3.47;;
5977;SDS011;3015;51.390;12.256;2022-11-15T13:27:22;3.63;;;3.33;;
5977;SDS011;3015;51.390;12.256;2022-11-15T13:29:48;3.50;;;3.30;;
5977;SDS011;3015;51.390;12.256;2022-11-15T13:32:14;3.43;;;3.20;;
5977;SDS011;3015;51.390;12.256;2022-11-15T13:34:44;4.30;;;3.60;;
5977;SDS011;3015;51.390;12.256;2022-11-15T13:37:33;3.70;;;3.00;;
5977;SDS011;3015;51.390;12.256;2022-11-15T13:40:10;3.07;;;2.87;;
5977;SDS011;3015;51.390;12.256;2022-11-15T13:42:45;4.00;;;3.70;;
5977;SDS011;3015;51.390;12.256;2022-11-15T13:45:13;3.90;;;3.53;;
5977;SDS011;3015;51.390;12.256;2022-11-15T13:47:40;3.40;;;3.20;;
5977;SDS011;3015;51.390;12.256;2022-11-15T13:50:09;4.57;;;3.27;;
5977;SDS011;3015;51.390;12.256;2022-11-15T13:52:36;3.60;;;3.37;;
5977;SDS011;3015;51.390;12.256;2022-11-15T13:55:21;4.30;;;3.70;;
5977;SDS011;3015;51.390;12.256;2022-11-15T13:57:49;3.27;;;2.97;;
5977;SDS011;3015;51.390;12.256;2022-11-15T14:00:30;3.47;;;3.20;;
5977;SDS011;3015;51.390;12.256;2022-11-15T14:03:27;3.20;;;3.00;;
5977;SDS011;3015;51.390;12.256;2022-11-15T14:06:05;3.73;;;3.40;;
5977;SDS011;3015;51.390;12.256;2022-11-15T14:08:40;3.30;;;3.10;;
5977;SDS011;3015;51.390;12.256;2022-11-15T14:11:26;3.90;;;3.67;;
5977;SDS011;3015;51.390;12.256;2022-11-15T14:14:25;3.47;;;3.17;;
5977;SDS011;3015;51.390;12.256;2022-11-15T14:16:58;3.73;;;3.43;;
5977;SDS011;3015;51.390;12.256;2022-11-15T14:22:09;3.83;;;3.53;;
5977;SDS011;3015;51.390;12.256;2022-11-15T14:24:40;3.80;;;3.50;;
5977;SDS011;3015;51.390;12.256;2022-11-15T14:27:21;4.20;;;3.90;;
5977;SDS011;3015;51.390;12.256;2022-11-15T14:29:49;3.43;;;3.23;;
5977;SDS011;3015;51.390;12.256;2022-11-15T14:32:19;4.03;;;3.67;;
5977;SDS011;3015;51.390;12.256;2022-11-15T14:34:56;4.73;;;4.43;;
5977;SDS011;3015;51.390;12.256;2022-11-15T14:37:25;7.60;;;6.90;;
5977;SDS011;3015;51.390;12.256;2022-11-15T14:40:04;9.10;;;8.30;;
5977;SDS011;3015;51.390;12.256;2022-11-15T14:42:30;13.63;;;12.30;;
5977;SDS011;3015;51.390;12.256;2022-11-15T14:44:57;14.00;;;12.73;;
5977;SDS011;3015;51.390;12.256;2022-11-15T14:47:23;18.47;;;16.70;;
5977;SDS011;3015;51.390;12.256;2022-11-15T14:49:49;14.93;;;13.27;;
5977;SDS011;3015;51.390;12.256;2022-11-15T14:52:25;14.83;;;11.43;;
5977;SDS011;3015;51.390;12.256;2022-11-15T14:54:52;13.17;;;12.00;;
5977;SDS011;3015;51.390;12.256;2022-11-15T14:57:18;7.73;;;7.03;;
5977;SDS011;3015;51.390;12.256;2022-11-15T14:59:44;6.07;;;5.67;;
5977;SDS011;3015;51.390;12.256;2022-11-15T15:02:15;5.97;;;5.33;;
5977;SDS011;3015;51.390;12.256;2022-11-15T15:04:41;9.50;;;6.10;;
5977;SDS011;3015;51.390;12.256;2022-11-15T15:07:07;6.93;;;6.37;;
5977;SDS011;3015;51.390;12.256;2022-11-15T15:09:33;8.30;;;7.60;;
5977;SDS011;3015;51.390;12.256;2022-11-15T15:11:59;9.87;;;8.97;;
5977;SDS011;3015;51.390;12.256;2022-11-15T15:14:25;7.70;;;7.10;;
5977;SDS011;3015;51.390;12.256;2022-11-15T15:16:51;7.47;;;6.77;;
5977;SDS011;3015;51.390;12.256;2022-11-15T15:19:17;8.63;;;7.93;;
5977;SDS011;3015;51.390;12.256;2022-11-15T15:21:43;8.47;;;7.67;;
5977;SDS011;3015;51.390;12.256;2022-11-15T15:24:13;9.30;;;8.57;;
5977;SDS011;3015;51.390;12.256;2022-11-15T15:26:40;10.03;;;9.03;;
5977;SDS011;3015;51.390;12.256;2022-11-15T15:29:06;9.10;;;8.30;;
5977;SDS011;3015;51.390;12.256;2022-11-15T15:31:33;8.83;;;8.20;;
5977;SDS011;3015;51.390;12.256;2022-11-15T15:33:59;10.67;;;8.83;;
5977;SDS011;3015;51.390;12.256;2022-11-15T15:36:26;9.43;;;8.60;;
5977;SDS011;3015;51.390;12.256;2022-11-15T15:38:52;9.20;;;8.40;;
5977;SDS011;3015;51.390;12.256;2022-11-15T15:41:18;8.37;;;7.50;;
5977;SDS011;3015;51.390;12.256;2022-11-15T15:43:43;7.80;;;7.10;;
5977;SDS011;3015;51.390;12.256;2022-11-15T15:46:09;10.37;;;6.50;;
5977;SDS011;3015;51.390;12.256;2022-11-15T15:48:39;7.90;;;7.20;;
5977;SDS011;3015;51.390;12.256;2022-11-15T15:51:05;6.17;;;5.67;;
5977;SDS011;3015;51.390;12.256;2022-11-15T15:53:31;8.40;;;6.30;;
5977;SDS011;3015;51.390;12.256;2022-11-15T15:55:57;7.75;;;6.15;;
5977;SDS011;3015;51.390;12.256;2022-11-15T15:58:23;8.40;;;6.43;;
5977;SDS011;3015;51.390;12.256;2022-11-15T16:00:49;8.90;;;6.97;;
5977;SDS011;3015;51.390;12.256;2022-11-15T16:03:14;9.30;;;8.30;;
5977;SDS011;3015;51.390;12.256;2022-11-15T16:05:40;8.77;;;7.87;;
5977;SDS011;3015;51.390;12.256;2022-11-15T16:08:09;8.40;;;7.70;;
5977;SDS011;3015;51.390;12.256;2022-11-15T16:10:43;10.35;;;9.45;;
5977;SDS011;3015;51.390;12.256;2022-11-15T16:13:08;10.50;;;9.40;;
5977;SDS011;3015;51.390;12.256;2022-11-15T16:15:34;18.77;;;16.60;;
5977;SDS011;3015;51.390;12.256;2022-11-15T16:18:01;43.53;;;34.75;;
5977;SDS011;3015;51.390;12.256;2022-11-15T16:20:39;32.35;;;28.10;;
5977;SDS011;3015;51.390;12.256;2022-11-15T16:23:08;20.80;;;18.73;;
5977;SDS011;3015;51.390;12.256;2022-11-15T16:25:45;18.10;;;12.95;;
5977;SDS011;3015;51.390;12.256;2022-11-15T16:28:21;13.23;;;10.60;;
5977;SDS011;3015;51.390;12.256;2022-11-15T16:30:48;9.25;;;8.32;;
5977;SDS011;3015;51.390;12.256;2022-11-15T16:33:15;13.57;;;9.55;;
5977;SDS011;3015;51.390;12.256;2022-11-15T16:35:42;13.30;;;11.65;;
5977;SDS011;3015;51.390;12.256;2022-11-15T16:38:12;14.30;;;9.83;;
5977;SDS011;3015;51.390;12.256;2022-11-15T16:40:40;11.50;;;10.45;;
5977;SDS011;3015;51.390;12.256;2022-11-15T16:43:06;11.15;;;9.75;;
5977;SDS011;3015;51.390;12.256;2022-11-15T16:45:33;11.47;;;10.10;;
5977;SDS011;3015;51.390;12.256;2022-11-15T16:47:59;14.50;;;10.63;;
5977;SDS011;3015;51.390;12.256;2022-11-15T16:50:26;11.47;;;9.80;;
5977;SDS011;3015;51.390;12.256;2022-11-15T16:52:54;11.05;;;9.98;;
5977;SDS011;3015;51.390;12.256;2022-11-15T16:55:22;15.27;;;10.77;;
5977;SDS011;3015;51.390;12.256;2022-11-15T16:57:49;13.35;;;9.32;;
5977;SDS011;3015;51.390;12.256;2022-11-15T17:00:15;8.90;;;8.00;;
5977;SDS011;3015;51.390;12.256;2022-11-15T17:02:43;9.35;;;7.40;;
5977;SDS011;3015;51.390;12.256;2022-11-15T17:05:09;8.68;;;6.60;;